KADW

Joint Base Andrews Airport

Camp Springs, Maryland, USA
METAR KADW 172256Z AUTO 15003KT 10SM CLR 25/23 A2981 RMK AO2 SLP099 T02500230 $
Observed Flight Rules
Jul-17 @ 22:56 UTC (23 minutes ago) Visual Flight Rules
Wind Visibility Clouds
150° at 3 knots 10 miles
  • Clear skies
Temperatures Readings
Current 25°C / 77°F
Dewpoint 23°C / 73°F
Humidity 89%
Altimeter 29.81" Hg
Pressure 1009.9 hPa
Elevation 86
METAR KADW 172256Z AUTO 15003KT 10SM CLR 25/23 A2981 RMK AO2 SLP099 T02500230 $
Observed Flight Rules
Jul-17 @ 22:56 UTC
(23 minutes ago)
VFR
Wind Visibility
150° at 3 knots 10 miles
Clouds
  • Clear skies
Temperature Dewpoint
25°C / 77°F 23°C / 73°F
Humidity Altimeter Pressure
89% 29.81" Hg 1009.9 hPa